Time;durP1;ratioP1;P1;durP2;ratioP2;P2;SDS_P1;SDS_P2;PMS_P1;PMS_P2;Temp;Humidity;BMP_temperature;BMP_pressure;BME280_temperature;BME280_humidity;BME280_pressure;Samples;Min_cycle;Max_cycle;Signal;HPM_P1;HPM_P2
2021/11/06 00:01:14;;;;;;;18.37;13.30;;;;;;;8.32;82.17;101349.78;5042138;28;20489;-72
2021/11/06 00:03:41;;;;;;;18.20;13.40;;;;;;;8.24;82.48;101335.13;5043571;28;20434;-72
2021/11/06 00:06:08;;;;;;;15.33;12.83;;;;;;;8.18;82.80;101342.69;5041463;28;20481;-72
2021/11/06 00:08:34;;;;;;;16.37;12.77;;;;;;;8.11;83.00;101336.88;5042654;28;20473;-72
2021/11/06 00:11:01;;;;;;;18.20;13.73;;;;;;;8.06;82.69;101339.84;5042776;28;20527;-72
2021/11/06 00:13:29;;;;;;;18.73;11.23;;;;;;;8.05;82.63;101342.59;5041768;28;20500;-72
2021/11/06 00:15:56;;;;;;;15.93;11.60;;;;;;;8.11;82.35;101344.88;5042930;28;20474;-72
2021/11/06 00:18:23;;;;;;;20.67;11.87;;;;;;;7.90;83.01;101337.28;5043715;28;20457;-72
2021/11/06 00:20:50;;;;;;;16.10;11.90;;;;;;;8.07;82.57;101343.34;5040397;28;20479;-72
2021/11/06 00:23:17;;;;;;;15.60;11.33;;;;;;;7.97;82.50;101342.22;5043218;28;20477;-73
2021/11/06 00:25:44;;;;;;;17.10;11.87;;;;;;;7.94;83.17;101337.97;5042467;28;20503;-72
2021/11/06 00:28:10;;;;;;;18.03;12.00;;;;;;;8.03;82.91;101341.84;5042305;28;20534;-72
2021/11/06 00:30:38;;;;;;;16.10;12.00;;;;;;;7.90;82.89;101347.94;5042711;28;20553;-73
2021/11/06 00:33:05;;;;;;;14.10;11.70;;;;;;;7.91;83.27;101339.00;5043140;28;20488;-73
2021/11/06 00:35:32;;;;;;;16.57;12.07;;;;;;;7.90;83.04;101337.28;5042368;28;20873;-72
2021/11/06 00:37:58;;;;;;;18.33;12.80;;;;;;;7.86;82.94;101338.44;5042585;28;20489;-73
2021/11/06 00:40:25;;;;;;;18.43;11.90;;;;;;;7.86;83.06;101343.78;5041229;28;20478;-72
2021/11/06 00:42:52;;;;;;;19.43;11.97;;;;;;;8.02;82.70;101343.66;5041435;28;20585;-72
2021/11/06 00:45:19;;;;;;;16.13;11.27;;;;;;;7.94;82.72;101340.63;5042714;28;20458;-72
2021/11/06 00:47:47;;;;;;;14.80;10.20;;;;;;;7.94;82.84;101347.75;5042950;28;20489;-73
2021/11/06 00:50:16;;;;;;;14.87;11.57;;;;;;;8.00;82.41;101348.22;5041057;28;20478;-72
2021/11/06 00:52:43;;;;;;;15.77;10.67;;;;;;;8.12;82.04;101346.56;5042333;28;20545;-73
2021/11/06 00:55:10;;;;;;;16.97;10.80;;;;;;;8.07;82.08;101341.56;5042784;28;20981;-72
2021/11/06 00:57:37;;;;;;;12.17;10.70;;;;;;;8.22;81.20;101342.38;5040706;28;20465;-73
2021/11/06 01:00:06;;;;;;;12.90;10.57;;;;;;;8.31;80.79;101346.25;5041709;28;20537;-73
2021/11/06 01:02:33;;;;;;;15.60;10.20;;;;;;;8.29;80.79;101342.84;5041804;28;20497;-73
2021/11/06 01:05:01;;;;;;;13.87;10.47;;;;;;;8.30;80.53;101349.88;5042061;28;20486;-73
2021/11/06 01:07:27;;;;;;;18.63;12.33;;;;;;;8.15;80.75;101354.38;5040291;28;20497;-73
2021/11/06 01:09:54;;;;;;;14.03;10.00;;;;;;;8.28;80.43;101354.44;5041130;28;20465;-72
2021/11/06 01:12:20;;;;;;;16.90;11.20;;;;;;;8.16;81.06;101355.22;5039969;28;20496;-72
2021/11/06 01:14:47;;;;;;;11.80;10.00;;;;;;;8.03;81.17;101350.69;5041370;28;20486;-73
2021/11/06 01:17:14;;;;;;;18.50;10.47;;;;;;;8.12;80.63;101357.22;5040803;28;20501;-73
2021/11/06 01:19:40;;;;;;;20.37;11.67;;;;;;;8.13;80.58;101356.28;5042675;28;20997;-73
2021/11/06 01:22:08;;;;;;;14.20;11.10;;;;;;;8.03;80.67;101356.00;5041017;28;21053;-73
2021/11/06 01:24:35;;;;;;;15.70;9.93;;;;;;;8.04;80.79;101356.88;5042646;28;20489;-73
2021/11/06 01:27:02;;;;;;;13.20;9.90;;;;;;;8.05;80.73;101358.56;5041958;28;20577;-73
2021/11/06 01:29:29;;;;;;;16.80;10.80;;;;;;;7.78;81.49;101346.06;5042435;28;20873;-73
2021/11/06 01:31:55;;;;;;;21.20;10.73;;;;;;;7.92;81.28;101356.69;5041929;28;20548;-73
2021/11/06 01:34:22;;;;;;;17.67;12.33;;;;;;;7.79;81.83;101360.22;5042960;28;20469;-72
2021/11/06 01:36:49;;;;;;;17.37;13.00;;;;;;;7.88;81.26;101365.81;5041667;28;20482;-73
2021/11/06 01:39:16;;;;;;;18.20;11.70;;;;;;;7.85;81.22;101363.34;5041698;28;20520;-72
2021/11/06 01:41:43;;;;;;;14.60;12.30;;;;;;;7.72;81.48;101362.38;5041612;28;20504;-73
2021/11/06 01:44:10;;;;;;;19.00;12.27;;;;;;;7.68;81.86;101368.88;5042182;28;20852;-72
2021/11/06 01:46:36;;;;;;;24.57;14.20;;;;;;;7.78;81.49;101363.81;5042148;28;20501;-73
2021/11/06 01:49:03;;;;;;;19.23;13.97;;;;;;;7.84;81.22;101363.44;5042353;28;20530;-74
2021/11/06 01:51:30;;;;;;;19.87;13.97;;;;;;;7.82;81.10;101360.88;5040821;28;20469;-73
2021/11/06 01:53:57;;;;;;;19.03;15.83;;;;;;;7.80;81.13;101349.47;5041965;28;20457;-72
2021/11/06 01:56:25;;;;;;;19.50;14.70;;;;;;;7.81;81.27;101359.19;5041782;28;20512;-72
2021/11/06 01:58:51;;;;;;;19.00;15.67;;;;;;;7.72;81.22;101347.31;5042635;28;20510;-73
2021/11/06 02:01:18;;;;;;;23.13;14.67;;;;;;;7.70;81.18;101354.50;5040421;28;20489;-72
2021/11/06 02:03:46;;;;;;;18.27;15.13;;;;;;;7.64;81.40;101349.56;5042268;28;20469;-73
2021/11/06 02:06:13;;;;;;;19.70;14.70;;;;;;;7.58;81.73;101344.63;5041327;28;20477;-73
2021/11/06 02:08:39;;;;;;;20.10;15.03;;;;;;;7.54;81.51;101341.28;5041173;28;20532;-73
2021/11/06 02:11:06;;;;;;;21.27;15.80;;;;;;;7.57;81.13;101342.03;5041698;28;20509;-73
2021/11/06 02:13:35;;;;;;;16.30;13.20;;;;;;;7.49;81.64;101342.53;5041704;28;20860;-72
2021/11/06 02:16:02;;;;;;;18.57;15.00;;;;;;;7.62;80.83;101337.28;5041284;28;20481;-72
2021/11/06 02:18:29;;;;;;;15.77;14.17;;;;;;;7.60;80.76;101333.88;5041713;28;20485;-72
2021/11/06 02:21:01;;;;;;;17.10;14.27;;;;;;;7.65;80.68;101345.09;5023796;28;20497;-73
2021/11/06 02:23:29;;;;;;;21.03;14.77;;;;;;;7.47;80.95;101339.97;5040944;28;20453;-72
2021/11/06 02:25:55;;;;;;;22.03;15.90;;;;;;;7.43;81.04;101341.09;5041345;28;20497;-73
2021/11/06 02:28:22;;;;;;;21.70;15.57;;;;;;;7.59;80.41;101334.84;5041744;28;20474;-73
2021/11/06 02:30:49;;;;;;;21.50;15.13;;;;;;;7.45;80.73;101341.84;5041196;28;20470;-72
2021/11/06 02:33:16;;;;;;;27.10;16.27;;;;;;;7.40;80.89;101338.63;5041092;28;20460;-73
2021/11/06 02:35:42;;;;;;;19.83;15.40;;;;;;;7.39;81.17;101336.06;5040613;28;20717;-73
2021/11/06 02:38:12;;;;;;;19.50;15.10;;;;;;;7.29;81.38;101333.97;5040625;28;20485;-73
2021/11/06 02:40:38;;;;;;;18.00;16.00;;;;;;;7.25;81.25;101337.72;5041331;28;20550;-73
2021/11/06 02:43:05;;;;;;;20.33;15.93;;;;;;;7.21;81.29;101335.38;5040291;28;20493;-73
2021/11/06 02:45:32;;;;;;;16.10;14.10;;;;;;;7.21;81.30;101346.00;5041066;28;20978;-73
2021/11/06 02:47:59;;;;;;;17.23;14.57;;;;;;;7.38;80.64;101351.16;5041591;28;21011;-72
2021/11/06 02:50:25;;;;;;;19.77;14.13;;;;;;;7.21;81.09;101351.31;5041253;28;20967;-73
2021/11/06 02:52:52;;;;;;;18.10;14.83;;;;;;;7.25;80.98;101351.03;5039922;28;20513;-73
2021/11/06 02:55:20;;;;;;;23.53;14.70;;;;;;;7.41;80.20;101350.09;5040824;28;20822;-73
2021/11/06 02:57:47;;;;;;;16.10;13.90;;;;;;;7.40;80.04;101351.06;5041270;28;20453;-73
2021/11/06 03:00:14;;;;;;;15.60;14.00;;;;;;;7.29;80.30;101349.91;5040602;28;20497;-73
2021/11/06 03:02:40;;;;;;;19.80;14.20;;;;;;;7.24;80.45;101343.13;5040525;28;20512;-73
2021/11/06 03:05:09;;;;;;;16.93;13.30;;;;;;;7.19;80.58;101337.25;5040894;28;20906;-73
2021/11/06 03:07:36;;;;;;;17.70;14.57;;;;;;;7.18;80.37;101336.38;5040481;28;20506;-73
2021/11/06 03:10:03;;;;;;;17.67;15.60;;;;;;;7.18;80.46;101351.50;5022651;28;20438;-72
2021/11/06 03:12:31;;;;;;;15.90;14.20;;;;;;;7.22;80.47;101343.25;5038604;28;20497;-73
2021/11/06 03:14:58;;;;;;;16.60;14.37;;;;;;;7.28;80.34;101332.22;5041835;28;20482;-72
2021/11/06 03:17:25;;;;;;;18.87;15.57;;;;;;;7.22;80.19;101353.03;5040175;28;20469;-73
2021/11/06 03:19:51;;;;;;;19.73;15.73;;;;;;;7.27;80.13;101348.28;5040872;28;20538;-72
2021/11/06 03:22:18;;;;;;;21.97;16.67;;;;;;;7.32;80.19;101341.72;5040454;28;20552;-74
2021/11/06 03:24:45;;;;;;;20.00;15.83;;;;;;;7.21;80.16;101340.69;5041213;28;20474;-74
2021/11/06 03:27:12;;;;;;;21.37;16.60;;;;;;;7.14;80.15;101342.84;5040530;28;20477;-73
2021/11/06 03:29:40;;;;;;;20.90;15.00;;;;;;;7.10;80.40;101343.97;5041661;28;20433;-74
2021/11/06 03:32:08;;;;;;;19.63;16.13;;;;;;;7.12;80.33;101355.38;5040419;28;21061;-73
2021/11/06 03:34:36;;;;;;;21.03;16.03;;;;;;;7.02;80.87;101356.88;5040951;28;20477;-72
2021/11/06 03:37:03;;;;;;;20.13;17.30;;;;;;;6.94;80.99;101349.34;5040266;28;20487;-72
2021/11/06 03:39:30;;;;;;;20.90;17.47;;;;;;;6.89;81.27;101359.38;5041366;28;20438;-74
2021/11/06 03:41:57;;;;;;;22.17;16.17;;;;;;;7.02;80.74;101363.03;5040289;28;20504;-73
2021/11/06 03:44:23;;;;;;;25.03;17.50;;;;;;;6.97;80.75;101362.47;5041019;28;20490;-73
2021/11/06 03:46:52;;;;;;;20.43;17.70;;;;;;;6.97;80.92;101363.31;5041212;28;20473;-73
2021/11/06 03:49:18;;;;;;;21.73;17.67;;;;;;;7.10;80.29;101352.81;5040994;28;20465;-73
2021/11/06 03:51:45;;;;;;;27.27;18.70;;;;;;;7.08;80.63;101362.69;5040675;28;20504;-73
2021/11/06 03:54:12;;;;;;;21.40;17.77;;;;;;;7.09;80.65;101360.88;5039647;28;20504;-74
2021/11/06 03:56:39;;;;;;;19.33;17.30;;;;;;;7.19;80.23;101356.72;5040479;28;20497;-73
2021/11/06 03:59:06;;;;;;;20.10;18.00;;;;;;;7.31;79.98;101369.28;5040899;28;20448;-74
2021/11/06 04:01:32;;;;;;;25.97;19.93;;;;;;;7.31;80.18;101350.69;5039597;28;20509;-73
2021/11/06 04:04:02;;;;;;;24.23;17.50;;;;;;;7.38;79.65;101351.16;5040325;28;20457;-73
2021/11/06 04:06:28;;;;;;;19.03;16.40;;;;;;;7.46;79.08;101356.84;5040202;28;21059;-73
2021/11/06 04:08:55;;;;;;;26.77;17.23;;;;;;;7.63;78.62;101355.84;5039478;28;20457;-73
2021/11/06 04:11:22;;;;;;;21.17;16.23;;;;;;;7.52;79.08;101361.81;5040382;28;20513;-73
2021/11/06 04:13:49;;;;;;;22.33;16.80;;;;;;;7.68;78.28;101360.88;5040352;28;20525;-73
2021/11/06 04:16:16;;;;;;;18.00;15.50;;;;;;;7.52;78.66;101363.63;5043055;28;20508;-73
2021/11/06 04:18:43;;;;;;;17.67;15.70;;;;;;;7.76;77.97;101369.25;5043421;28;20473;-74
2021/11/06 04:21:11;;;;;;;20.40;15.33;;;;;;;7.53;78.77;101358.22;5044139;28;20478;-73
2021/11/06 04:23:38;;;;;;;19.37;15.83;;;;;;;7.52;78.82;101356.50;5043084;28;20492;-73
2021/11/06 04:26:04;;;;;;;18.17;15.30;;;;;;;7.36;79.43;101358.38;5043625;28;20469;-73
2021/11/06 04:28:31;;;;;;;18.37;16.03;;;;;;;7.44;79.29;101360.56;5044208;28;20442;-73
2021/11/06 04:30:58;;;;;;;26.57;14.77;;;;;;;7.29;79.54;101354.34;5042977;28;20505;-72
2021/11/06 04:33:24;;;;;;;22.07;16.37;;;;;;;7.62;78.75;101364.78;5043420;28;20493;-72
2021/11/06 04:35:51;;;;;;;16.97;15.07;;;;;;;7.73;78.46;101366.78;5043110;28;20553;-73
2021/11/06 04:38:19;;;;;;;19.23;14.60;;;;;;;7.82;77.83;101363.53;5042388;28;20518;-72
2021/11/06 04:40:45;;;;;;;22.80;16.50;;;;;;;7.78;78.04;101364.69;5043016;28;20552;-72
2021/11/06 04:43:12;;;;;;;22.57;15.77;;;;;;;7.53;79.00;101363.53;5043453;28;20486;-72
2021/11/06 04:45:39;;;;;;;22.07;16.80;;;;;;;7.77;78.21;101370.09;5043131;28;20497;-72
2021/11/06 04:48:06;;;;;;;18.80;15.07;;;;;;;7.44;79.05;101357.91;5043268;28;20482;-73
2021/11/06 04:50:33;;;;;;;19.80;16.43;;;;;;;7.52;79.28;101366.28;5041989;28;21036;-73
2021/11/06 04:53:00;;;;;;;18.67;15.83;;;;;;;7.57;78.99;101366.00;5042564;28;20561;-73
2021/11/06 04:55:28;;;;;;;25.53;16.10;;;;;;;7.50;79.02;101353.06;5042467;28;20842;-73
2021/11/06 04:57:54;;;;;;;22.47;17.60;;;;;;;7.46;79.27;101343.56;5043278;28;20450;-74
2021/11/06 05:00:21;;;;;;;28.43;17.43;;;;;;;7.40;78.66;101357.25;5042132;28;20509;-73
2021/11/06 05:02:47;;;;;;;26.00;17.63;;;;;;;7.46;78.98;101354.19;5043483;28;20489;-73
2021/11/06 05:05:14;;;;;;;24.47;15.90;;;;;;;7.43;79.39;101345.53;5042810;28;20449;-73
2021/11/06 05:07:41;;;;;;;22.27;15.30;;;;;;;7.39;79.49;101350.19;5042331;28;20983;-73
2021/11/06 05:10:08;;;;;;;23.37;16.63;;;;;;;7.47;78.95;101349.75;5042154;28;20907;-74
2021/11/06 05:12:36;;;;;;;23.23;16.53;;;;;;;7.38;79.13;101343.19;5042258;28;20484;-73
2021/11/06 05:15:05;;;;;;;21.73;16.63;;;;;;;7.44;79.39;101349.94;5043100;28;20489;-73
2021/11/06 05:17:32;;;;;;;23.23;17.30;;;;;;;7.43;79.03;101343.75;5042001;28;20450;-75
2021/11/06 05:19:58;;;;;;;30.00;14.63;;;;;;;7.10;80.15;101350.16;5043382;28;20431;-74
2021/11/06 05:22:25;;;;;;;19.13;15.33;;;;;;;7.25;79.91;101361.66;5030622;28;20513;-73
2021/11/06 05:24:51;;;;;;;23.93;16.53;;;;;;;7.19;79.80;101337.25;5042649;28;20457;-74
2021/11/06 05:27:18;;;;;;;26.53;17.17;;;;;;;7.34;79.60;101346.97;5029958;28;20489;-74
2021/11/06 05:29:46;;;;;;;28.70;17.00;;;;;;;7.44;79.12;101360.56;5042426;28;20445;-75
2021/11/06 05:32:13;;;;;;;23.97;15.83;;;;;;;7.39;79.12;101370.63;5042260;28;20528;-74
2021/11/06 05:34:39;;;;;;;26.43;17.47;;;;;;;7.38;79.11;101374.22;5042636;28;20505;-73
2021/11/06 05:37:07;;;;;;;22.50;16.13;;;;;;;7.38;79.09;101385.75;5041617;28;20512;-72
2021/11/06 05:39:33;;;;;;;30.00;17.00;;;;;;;7.53;78.93;101382.16;5041827;28;20481;-72
2021/11/06 05:42:00;;;;;;;23.57;16.60;;;;;;;7.51;78.66;101386.69;5041747;28;20517;-72
2021/11/06 05:44:26;;;;;;;20.87;16.83;;;;;;;7.52;78.85;101385.75;5042735;28;20881;-73
2021/11/06 05:46:54;;;;;;;27.07;17.57;;;;;;;7.66;78.42;101394.72;5041723;28;20470;-72
2021/11/06 05:49:21;;;;;;;30.13;15.83;;;;;;;7.41;79.17;101390.03;5042131;28;20485;-72
2021/11/06 05:51:48;;;;;;;26.27;16.53;;;;;;;7.48;78.54;101376.28;5031581;28;20481;-72
2021/11/06 05:54:14;;;;;;;22.13;17.00;;;;;;;7.60;78.41;101381.78;5041700;28;20530;-73
2021/11/06 05:56:41;;;;;;;20.53;15.37;;;;;;;7.65;78.12;101385.03;5022992;28;20881;-72
2021/11/06 05:59:08;;;;;;;24.70;15.73;;;;;;;7.42;79.01;101376.63;5022289;28;20447;-72
2021/11/06 06:01:35;;;;;;;31.33;17.17;;;;;;;7.59;78.36;101380.09;5021864;28;20533;-73
2021/11/06 06:04:03;;;;;;;21.80;16.70;;;;;;;7.56;78.57;101382.94;5021988;28;20465;-73
2021/11/06 06:06:30;;;;;;;24.70;15.03;;;;;;;7.68;77.97;101390.16;5020982;28;20523;-73
2021/11/06 06:08:57;;;;;;;27.43;17.10;;;;;;;7.72;77.97;101392.56;5021617;28;20490;-72
2021/11/06 06:11:24;;;;;;;25.93;16.87;;;;;;;7.86;77.48;101396.16;5021483;28;20501;-72
2021/11/06 06:13:50;;;;;;;29.57;18.07;;;;;;;7.94;77.22;101395.69;5021365;28;20546;-73
2021/11/06 06:16:17;;;;;;;28.50;17.13;;;;;;;7.68;77.72;101391.00;5021824;28;20570;-73
2021/11/06 06:18:45;;;;;;;22.13;16.10;;;;;;;7.94;77.17;101401.88;5022230;28;20541;-73
2021/11/06 06:21:13;;;;;;;29.50;16.93;;;;;;;7.76;77.40;101392.34;5021747;28;20493;-72
2021/11/06 06:23:40;;;;;;;25.33;16.73;;;;;;;7.87;76.99;101390.72;5021347;28;20580;-73
2021/11/06 06:26:06;;;;;;;24.60;16.07;;;;;;;7.63;77.45;101386.91;5021122;28;21180;-72
2021/11/06 06:28:33;;;;;;;23.90;15.90;;;;;;;7.57;77.86;101384.63;5022341;28;20932;-73
2021/11/06 06:31:00;;;;;;;23.60;16.37;;;;;;;7.50;78.46;101382.34;5021004;28;20474;-73
2021/11/06 06:33:26;;;;;;;30.50;16.07;;;;;;;7.60;77.85;101389.75;5031275;28;20999;-72
2021/11/06 06:35:53;;;;;;;24.53;15.50;;;;;;;7.60;78.19;101395.09;5031523;28;20492;-72
2021/11/06 06:38:21;;;;;;;27.43;17.33;;;;;;;7.44;78.73;101395.16;5026991;28;20855;-72
2021/11/06 06:40:47;;;;;;;21.83;14.63;;;;;;;7.70;78.16;101401.56;5030121;28;20509;-73
2021/11/06 06:43:14;;;;;;;26.63;16.17;;;;;;;7.67;77.64;101393.75;5025146;28;20533;-74
2021/11/06 06:45:41;;;;;;;26.70;16.83;;;;;;;7.89;77.08;101403.94;5031008;28;20477;-74
2021/11/06 06:48:07;;;;;;;27.27;15.77;;;;;;;7.65;77.33;101395.66;5030736;28;20466;-73
2021/11/06 06:50:35;;;;;;;27.63;14.97;;;;;;;7.60;77.50;101405.72;5040395;28;20462;-72
2021/11/06 06:53:01;;;;;;;28.33;14.30;;;;;;;7.77;76.92;101405.56;5049033;28;20451;-72
2021/11/06 06:55:29;;;;;;;24.73;15.50;;;;;;;7.47;77.56;101389.66;5051462;28;20487;-72
2021/11/06 06:57:56;;;;;;;28.50;16.37;;;;;;;7.45;77.61;101399.56;5044774;28;20966;-72
2021/11/06 07:00:43;;;;;;;23.93;16.43;;;;;;;7.41;78.01;101400.66;5040856;28;20496;-73
2021/11/06 07:03:10;;;;;;;27.40;16.20;;;;;;;7.47;77.78;101385.19;4979139;28;20456;-73
2021/11/06 07:05:37;;;;;;;24.13;15.90;;;;;;;7.65;77.18;101388.53;4988641;28;20559;-74
2021/11/06 07:08:05;;;;;;;27.80;14.20;;;;;;;7.48;77.02;101397.56;4982611;28;20511;-74
2021/11/06 07:10:34;;;;;;;22.40;14.50;;;;;;;7.62;76.71;101396.72;4979504;28;20899;-74
2021/11/06 07:13:01;;;;;;;22.73;13.80;;;;;;;7.79;76.09;101387.69;4979001;28;20499;-75
2021/11/06 07:15:27;;;;;;;23.03;13.67;;;;;;;7.65;76.51;101391.19;4978612;28;20503;-73
2021/11/06 07:17:54;;;;;;;18.13;12.80;;;;;;;7.76;75.80;101403.88;4980090;28;20531;-74
2021/11/06 07:20:21;;;;;;;20.10;13.80;;;;;;;7.85;75.83;101392.63;4976884;28;20452;-74
2021/11/06 07:22:49;;;;;;;24.77;15.27;;;;;;;7.86;75.61;101402.34;4977282;28;20500;-73
2021/11/06 07:25:16;;;;;;;26.97;14.43;;;;;;;7.99;75.30;101407.75;4979302;28;20436;-73
2021/11/06 07:27:44;;;;;;;20.03;13.90;;;;;;;7.99;75.12;101405.09;4980480;28;20448;-74
2021/11/06 07:30:12;;;;;;;19.00;13.67;;;;;;;8.19;74.41;101405.66;4979054;28;20464;-74
2021/11/06 07:32:38;;;;;;;18.67;12.37;;;;;;;8.04;74.54;101410.16;4980104;28;20453;-74
2021/11/06 07:35:05;;;;;;;13.53;10.27;;;;;;;7.86;74.44;101412.13;4978177;28;20461;-74
2021/11/06 07:37:33;;;;;;;17.50;10.97;;;;;;;7.79;75.11;101408.13;4982086;28;20456;-73
2021/11/06 07:40:00;;;;;;;20.77;12.20;;;;;;;8.02;74.43;101423.56;5010551;28;20446;-74
2021/11/06 07:42:27;;;;;;;16.20;10.50;;;;;;;8.03;73.55;101411.09;5050796;28;20923;-72
2021/11/06 07:44:55;;;;;;;16.70;12.80;;;;;;;7.76;74.64;101411.84;5040965;28;20493;-74
2021/11/06 07:47:22;;;;;;;19.47;11.83;;;;;;;7.94;74.31;101409.00;5041223;28;21155;-73
2021/11/06 07:49:48;;;;;;;17.33;11.83;;;;;;;8.13;74.01;101414.88;5042911;28;20509;-73
2021/11/06 07:52:15;;;;;;;16.47;11.33;;;;;;;8.19;72.88;101409.16;5044984;28;20462;-73
2021/11/06 07:54:42;;;;;;;15.23;9.60;;;;;;;7.99;74.07;101406.91;5044020;28;20515;-73
2021/11/06 07:57:09;;;;;;;16.20;9.90;;;;;;;7.87;73.64;101412.03;5044592;28;20478;-73
2021/11/06 07:59:36;;;;;;;13.43;9.60;;;;;;;8.08;73.06;101407.19;5045489;28;20502;-73
2021/11/06 08:02:04;;;;;;;13.63;9.93;;;;;;;8.14;72.83;101413.91;5044373;28;20927;-73
2021/11/06 08:04:31;;;;;;;15.23;9.30;;;;;;;8.16;72.86;101416.50;5042200;28;21069;-73
2021/11/06 08:06:57;;;;;;;15.80;8.97;;;;;;;8.18;73.02;101412.78;5044619;28;20512;-73
2021/11/06 08:09:24;;;;;;;14.53;9.07;;;;;;;7.85;73.91;101415.75;5044078;28;20449;-72
2021/11/06 08:11:51;;;;;;;16.23;9.50;;;;;;;8.13;73.17;101401.56;5044564;28;20501;-73
2021/11/06 08:14:18;;;;;;;14.57;8.23;;;;;;;8.18;72.43;101404.81;5044777;28;20453;-72
2021/11/06 08:16:44;;;;;;;11.23;8.00;;;;;;;7.99;72.73;101402.44;5047764;28;20507;-72
2021/11/06 08:19:12;;;;;;;12.73;7.77;;;;;;;8.44;72.04;101395.19;5051210;28;20830;-73
2021/11/06 08:21:39;;;;;;;9.97;7.13;;;;;;;8.09;72.59;101386.75;5055032;28;20583;-73
2021/11/06 08:24:06;;;;;;;14.70;8.40;;;;;;;8.15;72.74;101394.34;5042691;28;20457;-74
2021/11/06 08:26:33;;;;;;;13.77;7.17;;;;;;;8.07;72.76;101394.81;5057191;28;20484;-73
2021/11/06 08:29:00;;;;;;;11.17;7.37;;;;;;;8.10;72.53;101391.09;5044117;28;20434;-74
2021/11/06 08:31:26;;;;;;;13.10;7.20;;;;;;;8.17;71.94;101400.41;5053343;28;20484;-75
2021/11/06 08:33:53;;;;;;;10.93;6.70;;;;;;;8.25;71.88;101398.13;5043850;28;20458;-74
2021/11/06 08:36:21;;;;;;;13.60;7.20;;;;;;;8.22;71.52;101395.66;5053634;28;20575;-75
2021/11/06 08:38:48;;;;;;;10.57;6.20;;;;;;;8.17;72.03;101396.91;5052614;28;20485;-74
2021/11/06 08:41:14;;;;;;;12.73;7.50;;;;;;;8.05;72.05;101395.84;5052037;28;20519;-74
2021/11/06 08:43:41;;;;;;;10.07;7.00;;;;;;;8.19;72.04;101400.31;5051827;28;20489;-74
2021/11/06 08:46:08;;;;;;;10.00;6.67;;;;;;;8.21;71.31;101398.41;5052230;28;20497;-74
2021/11/06 08:48:35;;;;;;;9.73;6.83;;;;;;;8.41;71.18;101395.34;5051865;28;20489;-74
2021/11/06 08:51:02;;;;;;;12.37;7.57;;;;;;;8.44;70.99;101395.19;5054187;28;20476;-74
2021/11/06 08:53:30;;;;;;;10.40;6.90;;;;;;;8.40;70.86;101404.31;5042994;28;20989;-73
2021/11/06 08:55:57;;;;;;;15.20;7.00;;;;;;;8.39;71.30;101405.25;5051536;28;20540;-75
2021/11/06 08:58:23;;;;;;;11.53;7.50;;;;;;;8.27;71.90;101411.34;5053044;28;20481;-74
2021/11/06 09:00:51;;;;;;;11.10;6.97;;;;;;;8.26;72.13;101405.19;5055209;28;20965;-74
2021/11/06 09:03:20;;;;;;;10.27;6.63;;;;;;;8.26;71.60;101417.63;5041983;28;20524;-74
2021/11/06 09:05:51;;;;;;;13.63;7.80;;;;;;;8.24;72.13;101403.56;5039044;28;20675;-74
2021/11/06 09:08:18;;;;;;;11.30;7.20;;;;;;;8.06;72.74;101403.75;5041911;28;20446;-73
2021/11/06 09:10:47;;;;;;;11.07;7.67;;;;;;;8.37;71.88;101407.16;5041393;28;20535;-74
2021/11/06 09:13:14;;;;;;;11.90;7.57;;;;;;;8.32;72.41;101413.75;5041681;28;20483;-73
2021/11/06 09:15:41;;;;;;;14.93;7.83;;;;;;;8.18;72.87;101407.47;5040272;28;20480;-73
2021/11/06 09:18:09;;;;;;;10.90;6.80;;;;;;;8.27;72.91;101417.53;5053392;28;20441;-74
2021/11/06 09:20:36;;;;;;;9.57;7.50;;;;;;;8.00;73.80;101411.28;5041216;28;20477;-74
2021/11/06 09:23:02;;;;;;;10.53;7.30;;;;;;;8.13;74.49;101416.72;5041928;28;20508;-74
2021/11/06 09:25:29;;;;;;;11.63;8.23;;;;;;;8.14;74.37;101413.91;5041336;28;20465;-75
2021/11/06 09:27:57;;;;;;;15.87;7.97;;;;;;;8.26;74.49;101422.94;5041251;28;20496;-74
2021/11/06 09:30:24;;;;;;;12.33;8.40;;;;;;;8.26;73.24;101418.50;5049906;28;20932;-74
2021/11/06 09:32:51;;;;;;;11.53;7.40;;;;;;;8.10;74.81;101412.41;5058044;28;20473;-74
2021/11/06 09:35:17;;;;;;;13.53;7.93;;;;;;;7.98;74.62;101413.19;5039974;28;20462;-73
2021/11/06 09:37:44;;;;;;;13.17;8.60;;;;;;;8.03;75.01;101416.41;5048493;28;20453;-74
2021/11/06 09:40:11;;;;;;;13.17;7.60;;;;;;;8.27;74.53;101422.84;5041973;28;20450;-73
2021/11/06 09:42:40;;;;;;;14.37;8.40;;;;;;;8.06;74.67;101425.06;5042269;28;20482;-73
2021/11/06 09:45:09;;;;;;;11.17;6.80;;;;;;;8.07;75.54;101421.47;5041197;28;20458;-72
2021/11/06 09:47:36;;;;;;;14.07;7.27;;;;;;;7.96;75.41;101426.59;5042615;28;20975;-71
2021/11/06 09:50:04;;;;;;;13.33;8.00;;;;;;;8.16;75.14;101422.69;5041287;28;20535;-74
2021/11/06 09:52:31;;;;;;;12.93;7.97;;;;;;;8.00;75.40;101416.59;5040675;28;20458;-72
2021/11/06 09:54:57;;;;;;;14.67;8.73;;;;;;;8.16;75.00;101411.16;5061162;28;20520;-72
2021/11/06 09:57:24;;;;;;;10.00;7.00;;;;;;;8.25;75.16;101410.59;5053268;28;20474;-72
2021/11/06 09:59:51;;;;;;;13.20;7.50;;;;;;;8.27;74.68;101414.88;5047390;28;20476;-72
2021/11/06 10:02:19;;;;;;;12.23;8.10;;;;;;;8.16;75.10;101412.03;5043377;28;20517;-70
2021/11/06 10:04:46;;;;;;;9.90;7.87;;;;;;;8.17;75.80;101412.88;5030773;28;20462;-73
2021/11/06 10:07:20;;;;;;;13.53;7.70;;;;;;;8.50;74.59;101414.41;5039270;28;20500;-72
2021/11/06 10:09:58;;;;;;;12.10;9.33;;;;;;;8.60;74.29;101416.38;5061247;28;20461;-73
2021/11/06 10:12:25;;;;;;;12.37;8.30;;;;;;;8.81;73.36;101411.44;5060547;28;20462;-74
2021/11/06 10:15:04;;;;;;;13.63;8.37;;;;;;;8.92;72.93;101412.53;5046332;28;20751;-73
2021/11/06 10:17:35;;;;;;;16.00;8.97;;;;;;;8.92;72.80;101409.88;5045185;28;20491;-73
2021/11/06 10:20:20;;;;;;;16.10;8.33;;;;;;;8.66;72.83;101407.97;5049862;28;20517;-74
2021/11/06 10:22:47;;;;;;;14.23;8.40;;;;;;;8.86;71.19;101400.47;5039066;28;20489;-74
2021/11/06 10:25:14;;;;;;;14.40;7.03;;;;;;;9.05;71.21;101392.13;5040185;28;20489;-75
2021/11/06 10:27:49;;;;;;;10.53;7.33;;;;;;;9.04;71.03;101385.06;5041812;28;20731;-74
2021/11/06 10:30:21;;;;;;;10.37;7.87;;;;;;;9.02;71.08;101381.63;5054560;28;20464;-72
2021/11/06 10:32:59;;;;;;;12.50;8.47;;;;;;;9.28;70.72;101379.88;5048121;28;20442;-73
2021/11/06 10:35:28;;;;;;;15.30;8.10;;;;;;;9.26;70.11;101371.13;5039838;28;20533;-75
2021/11/06 10:37:58;;;;;;;12.47;7.80;;;;;;;9.35;70.95;101373.16;5058831;28;20464;-74
2021/11/06 10:40:30;;;;;;;15.13;8.17;;;;;;;9.21;70.45;101371.44;5046208;28;20497;-73
2021/11/06 10:42:58;;;;;;;12.93;7.37;;;;;;;9.21;69.58;101378.59;5041772;28;20497;-73
2021/11/06 10:45:27;;;;;;;12.30;7.43;;;;;;;9.47;69.37;101373.28;5038489;28;20497;-72
2021/11/06 10:47:55;;;;;;;11.40;7.30;;;;;;;9.53;69.65;101372.84;5040433;28;20474;-73
2021/11/06 10:53:33;;;;;;;10.97;7.07;;;;;;;9.52;68.76;101365.81;5098611;27;20549;-69
2021/11/06 10:56:02;;;;;;;12.33;7.67;;;;;;;9.37;69.79;101373.94;5088578;28;20495;-68
2021/11/06 10:58:30;;;;;;;12.40;7.93;;;;;;;9.21;69.48;101363.44;5078314;28;20420;-69
2021/11/06 11:00:58;;;;;;;14.60;8.73;;;;;;;9.39;69.61;101366.66;5074954;28;20892;-68
2021/11/06 11:03:27;;;;;;;11.03;7.77;;;;;;;9.47;69.45;101351.94;5066811;28;20456;-69
2021/11/06 11:05:54;;;;;;;9.40;7.10;;;;;;;9.50;68.37;101344.56;5064835;28;20539;-68
2021/11/06 11:08:23;;;;;;;9.50;7.10;;;;;;;9.68;68.32;101350.44;5056953;28;20480;-68
2021/11/06 11:10:50;;;;;;;12.20;7.80;;;;;;;10.04;67.60;101350.59;5056530;28;20981;-69
2021/11/06 11:13:18;;;;;;;10.37;7.13;;;;;;;9.83;67.76;101342.31;5057491;28;20962;-68
2021/11/06 11:15:46;;;;;;;11.30;7.77;;;;;;;10.26;66.61;101329.38;5057953;28;20519;-68
2021/11/06 11:18:30;;;;;;;11.47;7.00;;;;;;;10.49;66.06;101329.53;5057062;28;20436;-68
2021/11/06 11:21:11;;;;;;;10.47;6.53;;;;;;;10.03;66.56;101328.34;5057293;28;20913;-68
2021/11/06 11:23:40;;;;;;;10.93;6.40;;;;;;;10.49;66.51;101318.84;5057548;28;20476;-68